Maran Sagitta — SVAQ6 — position and weather

sailwx.info

Track history (hours):
 
Tides and Currents Weather Stations Pressure Air Temp Water Temp Dewpoint Dewpoint Depression Visibility Wind Speed Wind Dir Waves Ship Positions

Maran Sagitta

Last reported at 2017-Oct-17 10:00 UTC. Time now 2017-Oct-17 10:11 UTC.
Position N 51°27' E 003°40'.

Length 244 m; draft 8.6 m.

Type: Tanker. MMSI: 240892000.

Date/timePositionNaut miles runAvg speedWind from/ knotsBaromVisibWave heightAir tempDewpointWater temp
2017-Oct-17 10:00N 51°27' E 003°40'0 0.0
2017-Oct-17 09:24N 51°27' E 003°40'0 0.0
2017-Oct-17 08:54N 51°27' E 003°40'0 0.0
2017-Oct-17 08:30N 51°27' E 003°40'0 0.0
2017-Oct-17 07:57N 51°27' E 003°40'0 0.0
2017-Oct-17 07:30N 51°27' E 003°40'0 0.0
2017-Oct-17 06:57N 51°27' E 003°40'0 0.0
2017-Oct-17 06:30N 51°27' E 003°40'0 0.0
2017-Oct-17 06:00N 51°27' E 003°40'0 0.0
2017-Oct-17 05:30N 51°27' E 003°40'0 0.0
2017-Oct-17 04:57N 51°27' E 003°40'0 0.0
2017-Oct-17 04:30N 51°27' E 003°40'0 0.0
2017-Oct-17 04:00N 51°27' E 003°40'0 0.0
2017-Oct-17 03:27N 51°27' E 003°40'0 0.0
2017-Oct-17 03:00N 51°27' E 003°40'0 0.0
2017-Oct-17 02:30N 51°27' E 003°40'0 0.0
2017-Oct-17 01:57N 51°27' E 003°40'0 0.0
2017-Oct-17 01:27N 51°27' E 003°40'0 0.0
2017-Oct-17 01:00N 51°27' E 003°40'0 0.0
2017-Oct-17 00:30N 51°27' E 003°40'0 0.0
2017-Oct-17 00:00N 51°27' E 003°40'1 1.6
2017-Oct-16 23:31N 51°27' E 003°40'4 7.1
2017-Oct-16 23:00N 51°25' E 003°34'3 6.9
2017-Oct-16 22:30N 51°25' E 003°29'3 5.1
2017-Oct-16 22:01N 51°25' E 003°25'4 7.7
2017-Oct-16 21:31N 51°24' E 003°19'4 8.7
2017-Oct-16 21:01N 51°24' E 003°12'4 8.0
2017-Oct-16 20:31N 51°24' E 003°05'3 6.1
2017-Oct-16 20:01N 51°23' E 003°00'3 5.9
2017-Oct-16 19:30N 51°22' E 002°56'3 6.6
2017-Oct-16 19:00N 51°21' E 002°51'5 9.3
2017-Oct-16 18:29N 51°21' E 002°43'3 7.1
2017-Oct-16 18:00N 51°20' E 002°38'1 1.8
2017-Oct-16 17:16N 51°20' E 002°36'0 0.1
2017-Oct-16 16:43N 51°20' E 002°36'0 0.3
2017-Oct-16 16:28N 51°20' E 002°36'0 0.1
2017-Oct-16 15:55N 51°20' E 002°36'0 0.0
2017-Oct-16 15:28N 51°20' E 002°36'0 0.1
2017-Oct-16 14:58N 51°20' E 002°36'0 0.0
2017-Oct-16 14:28N 51°20' E 002°36'0 0.0
2017-Oct-16 13:28N 51°20' E 002°36'0 0.0
2017-Oct-16 12:58N 51°20' E 002°36'0 0.0
2017-Oct-16 12:28N 51°20' E 002°36'0 0.0
2017-Oct-16 11:58N 51°20' E 002°36'0 0.0
2017-Oct-16 11:28N 51°20' E 002°36'0 0.0
2017-Oct-16 10:59N 51°20' E 002°36'0 0.0
2017-Oct-16 10:25N 51°20' E 002°36'0 0.0
2017-Oct-16 09:58N 51°20' E 002°36'0 0.0
2017-Oct-16 09:28N 51°20' E 002°36'0 0.0
2017-Oct-16 08:58N 51°20' E 002°36'0 0.1
2017-Oct-16 08:28N 51°20' E 002°36'0 0.0
2017-Oct-16 07:58N 51°20' E 002°36'0 0.2
2017-Oct-16 07:28N 51°20' E 002°36'0 0.2
2017-Oct-16 06:58N 51°20' E 002°36'0 0.1
2017-Oct-16 06:28N 51°20' E 002°36'0 0.7
2017-Oct-16 06:00N 51°20' E 002°36'2 3.7
2017-Oct-16 05:30N 51°21' E 002°33'4 8.5
2017-Oct-16 05:00N 51°21' E 002°26'611.8
2017-Oct-16 04:30N 51°18' E 002°18'611.8
2017-Oct-16 04:00N 51°15' E 002°10'611.7
2017-Oct-16 03:30N 51°12' E 002°02'611.8
2017-Oct-16 03:00N 51°09' E 001°54'611.6
2017-Oct-16 02:30N 51°06' E 001°46'611.8
2017-Oct-16 02:00N 51°01' E 001°40'612.3
2017-Oct-16 01:30N 50°57' E 001°33'612.9
2017-Oct-16 01:00N 50°51' E 001°28'713.2
2017-Oct-16 00:30N 50°45' E 001°24'713.0
2017-Oct-16 00:00N 50°39' E 001°19'1213.4
2017-Oct-15 23:05N 50°32' E 001°04'113.4
2017-Oct-15 23:00N 50°31' E 001°02'1013.1
2017-Oct-15 22:14N 50°26' E 000°48'713.3
2017-Oct-15 21:40N 50°25' E 000°36'513.4
2017-Oct-15 21:20N 50°25' E 000°29'413.4
2017-Oct-15 21:01N 50°24' E 000°23'713.6
2017-Oct-15 20:30N 50°23' E 000°12'713.8
2017-Oct-15 20:00N 50°22' E 000°01'713.7
2017-Oct-15 19:31N 50°23' W 000°09'713.8
2017-Oct-15 19:01N 50°26' W 000°19'714.0
2017-Oct-15 18:31N 50°29' W 000°29'714.1
2017-Oct-15 18:01N 50°32' W 000°39'714.0
2017-Oct-15 17:30N 50°36' W 000°48'713.5
2017-Oct-15 17:00N 50°40' W 000°56'5 9.8
2017-Oct-15 16:30N 50°43' W 001°02'713.9
2017-Oct-15 16:00N 50°46' W 001°12'4 8.4
2017-Oct-15 15:31N 50°48' W 001°18'3 5.1
2017-Oct-15 15:00N 50°50' W 001°20'0 0.0
2017-Oct-15 14:00N 50°50' W 001°20'0 0.0
2017-Oct-15 13:30N 50°50' W 001°20'0 0.0
2017-Oct-15 13:00N 50°50' W 001°20'0 0.0
2017-Oct-15 12:30N 50°50' W 001°20'0 0.0
2017-Oct-15 12:00N 50°50' W 001°20'0 0.0
2017-Oct-15 11:30N 50°50' W 001°20'0 0.0
2017-Oct-15 11:00N 50°50' W 001°20'0 0.0
2017-Oct-15 10:30N 50°50' W 001°20'0 0.0
2017-Oct-15 10:00N 50°50' W 001°20'0 0.0
2017-Oct-15 09:30N 50°50' W 001°20'0 0.0
2017-Oct-15 09:00N 50°50' W 001°20'0 0.0
2017-Oct-15 08:30N 50°50' W 001°20'0 0.0
2017-Oct-15 08:00N 50°50' W 001°20'0 0.0
2017-Oct-15 07:30N 50°50' W 001°20'0 0.0
2017-Oct-15 07:00N 50°50' W 001°20'0 0.0
2017-Oct-15 06:30N 50°50' W 001°20'0 0.0
2017-Oct-15 06:00N 50°50' W 001°20'0 0.0
2017-Oct-15 05:30N 50°50' W 001°20'0 0.0
2017-Oct-15 05:00N 50°50' W 001°20'0 0.0
2017-Oct-15 04:30N 50°50' W 001°20'0 0.0
2017-Oct-15 04:00N 50°50' W 001°20'0 0.0
2017-Oct-15 03:30N 50°50' W 001°20'0 0.0
2017-Oct-15 03:00N 50°50' W 001°20'0 0.0
2017-Oct-15 02:30N 50°50' W 001°20'0 0.0
2017-Oct-15 02:00N 50°50' W 001°20'0 0.0
2017-Oct-15 01:30N 50°50' W 001°20'0 0.0
2017-Oct-15 01:00N 50°50' W 001°20'0 0.0
2017-Oct-15 00:30N 50°50' W 001°20'0 0.0
2017-Oct-15 00:00N 50°50' W 001°20'0 0.0
2017-Oct-14 23:30N 50°50' W 001°20'0 0.0
2017-Oct-14 23:00N 50°50' W 001°20'0 0.0
2017-Oct-14 22:30N 50°50' W 001°20'0 0.0
2017-Oct-14 22:00N 50°50' W 001°20'0 0.0
2017-Oct-14 21:30N 50°50' W 001°20'0 0.0
2017-Oct-14 21:00N 50°50' W 001°20'0 0.0
2017-Oct-14 20:30N 50°50' W 001°20'0 0.0
2017-Oct-14 20:00N 50°50' W 001°20'0 0.0
2017-Oct-14 19:30N 50°50' W 001°20'0 0.0
2017-Oct-14 19:00N 50°50' W 001°20'0 0.0
2017-Oct-14 18:30N 50°50' W 001°20'0 0.0
2017-Oct-14 18:00N 50°50' W 001°20'0 0.0
2017-Oct-14 17:30N 50°50' W 001°20'0 0.0
2017-Oct-14 17:00N 50°50' W 001°20'0 0.0
2017-Oct-14 16:30N 50°50' W 001°20'0 0.0
2017-Oct-14 16:00N 50°50' W 001°20'0 0.0
2017-Oct-14 15:30N 50°50' W 001°20'0 0.0
2017-Oct-14 15:00N 50°50' W 001°20'0 0.0
2017-Oct-14 14:30N 50°50' W 001°20'0 0.0
2017-Oct-14 14:00N 50°50' W 001°20'0 0.0
2017-Oct-14 13:30N 50°50' W 001°20'0 0.0
2017-Oct-14 13:00N 50°50' W 001°20'0 0.0
2017-Oct-14 12:30N 50°50' W 001°20'0 0.0
2017-Oct-14 12:00N 50°50' W 001°20'0 0.0
2017-Oct-14 11:30N 50°50' W 001°20'0 0.0
2017-Oct-14 11:00N 50°50' W 001°20'0 0.0
2017-Oct-14 10:30N 50°50' W 001°20'0 0.0
2017-Oct-14 10:00N 50°50' W 001°20'0 0.0
2017-Oct-14 09:30N 50°50' W 001°20'0 0.0
2017-Oct-14 09:00N 50°50' W 001°20'0 0.0
2017-Oct-14 08:30N 50°50' W 001°20'0 0.0
2017-Oct-14 08:00N 50°50' W 001°20'0 0.0
2017-Oct-14 07:30N 50°50' W 001°20'0 0.0
2017-Oct-14 07:00N 50°50' W 001°20'0 0.0
2017-Oct-14 06:30N 50°50' W 001°20'0 0.0
2017-Oct-14 06:00N 50°50' W 001°20'0 0.0
2017-Oct-14 05:30N 50°50' W 001°20'1 1.0
2017-Oct-14 05:01N 50°50' W 001°19'3 6.8
2017-Oct-14 04:30N 50°47' W 001°18'611.7
2017-Oct-14 04:00N 50°46' W 001°09'611.9
2017-Oct-14 03:30N 50°43' W 001°00'510.0
2017-Oct-14 03:00N 50°39' W 000°56'2 5.0
2017-Oct-14 02:30N 50°37' W 000°59'2 4.1
2017-Oct-14 01:59N 50°37' W 001°03'0 0.2
2017-Oct-14 01:29N 50°37' W 001°03'0 0.0
2017-Oct-14 00:59N 50°37' W 001°03'0 0.0
2017-Oct-14 00:29N 50°37' W 001°03'0 0.0
2017-Oct-13 23:59N 50°37' W 001°03'0 0.0
2017-Oct-13 23:29N 50°37' W 001°03'0 0.3
2017-Oct-13 22:56N 50°37' W 001°03'0 0.2
2017-Oct-13 22:29N 50°37' W 001°03'0 0.1
2017-Oct-13 21:59N 50°37' W 001°03'0 0.0
2017-Oct-13 21:29N 50°37' W 001°03'0 0.0
2017-Oct-13 20:59N 50°37' W 001°03'0 0.0
2017-Oct-13 20:29N 50°37' W 001°03'0 0.0
2017-Oct-13 19:59N 50°37' W 001°03'0 0.0
2017-Oct-13 19:29N 50°37' W 001°03'0 0.0
2017-Oct-13 18:59N 50°37' W 001°03'0 0.0
2017-Oct-13 18:29N 50°37' W 001°03'0 0.3
2017-Oct-13 17:59N 50°37' W 001°03'0 0.3
2017-Oct-13 17:29N 50°37' W 001°03'0 0.1
2017-Oct-13 16:59N 50°37' W 001°03'0 0.0
2017-Oct-13 16:29N 50°37' W 001°03'0 0.0
2017-Oct-13 15:59N 50°37' W 001°03'0 0.0
2017-Oct-13 15:29N 50°37' W 001°03'0 0.0
2017-Oct-13 14:59N 50°37' W 001°03'0 0.0
2017-Oct-13 14:29N 50°37' W 001°03'0 0.0
2017-Oct-13 13:59N 50°37' W 001°03'0 0.0
2017-Oct-13 13:29N 50°37' W 001°03'0 0.0
2017-Oct-13 12:59N 50°37' W 001°03'0 0.0
2017-Oct-13 12:29N 50°37' W 001°03'0 0.0
2017-Oct-13 11:59N 50°37' W 001°03'0 0.0
2017-Oct-13 11:29N 50°37' W 001°03'0 0.0
2017-Oct-13 10:59N 50°37' W 001°03'0 0.0
2017-Oct-13 10:29N 50°37' W 001°03'0 0.3
2017-Oct-13 09:59N 50°37' W 001°03'0 0.4
2017-Oct-13 09:29N 50°37' W 001°03'0 0.1
2017-Oct-13 08:59N 50°37' W 001°03'0 0.0
2017-Oct-13 08:29N 50°37' W 001°03'0 0.0
2017-Oct-13 07:59N 50°37' W 001°03'0 0.0
2017-Oct-13 07:29N 50°37' W 001°03'0 0.0
2017-Oct-13 06:59N 50°37' W 001°03'0 0.0
2017-Oct-13 06:29N 50°37' W 001°03'0 0.0
2017-Oct-13 05:59N 50°37' W 001°03'0 0.1
2017-Oct-13 05:29N 50°37' W 001°03'0 0.3
2017-Oct-13 04:59N 50°37' W 001°03'0 0.2
2017-Oct-13 04:29N 50°37' W 001°03'0 0.1
2017-Oct-13 03:59N 50°37' W 001°03'0 0.1
2017-Oct-13 03:29N 50°37' W 001°03'0 0.0
2017-Oct-13 02:59N 50°37' W 001°03'0 0.0
2017-Oct-13 02:29N 50°37' W 001°03'0 0.0
2017-Oct-13 01:59N 50°37' W 001°03'0 0.0
2017-Oct-13 01:29N 50°37' W 001°03'0 0.0
2017-Oct-13 00:59N 50°37' W 001°03'0 0.0
2017-Oct-13 00:29N 50°37' W 001°03'0 0.0
2017-Oct-12 23:59N 50°37' W 001°03'0 0.0
2017-Oct-12 23:29N 50°37' W 001°03'0 0.0
2017-Oct-12 22:59N 50°37' W 001°03'0 0.0
2017-Oct-12 22:29N 50°37' W 001°03'0 0.2
2017-Oct-12 21:59N 50°37' W 001°03'0 0.4
2017-Oct-12 21:29N 50°37' W 001°03'0 0.1
2017-Oct-12 20:59N 50°37' W 001°03'0 0.0
2017-Oct-12 20:29N 50°37' W 001°03'0 0.0
2017-Oct-12 19:59N 50°37' W 001°03'0 0.0
2017-Oct-12 19:29N 50°37' W 001°03'0 0.0
2017-Oct-12 18:59N 50°37' W 001°03'0 0.0
2017-Oct-12 18:29N 50°37' W 001°03'0 0.0
2017-Oct-12 17:59N 50°37' W 001°03'0 0.0
2017-Oct-12 17:29N 50°37' W 001°03'0 0.0
2017-Oct-12 16:59N 50°37' W 001°03'0 0.2
2017-Oct-12 16:29N 50°37' W 001°03'0 0.4
2017-Oct-12 15:59N 50°37' W 001°03'0 0.2
2017-Oct-12 15:29N 50°37' W 001°03'0 0.1
2017-Oct-12 14:59N 50°37' W 001°03'0 0.0
2017-Oct-12 14:29N 50°37' W 001°03'0 0.0
2017-Oct-12 13:59N 50°37' W 001°03'0 0.0
2017-Oct-12 13:29N 50°37' W 001°03'0 0.0
2017-Oct-12 12:59N 50°37' W 001°03'0 0.0
2017-Oct-12 12:29N 50°37' W 001°03'0 0.0
2017-Oct-12 11:59N 50°37' W 001°03'0 0.0
2017-Oct-12 11:29N 50°37' W 001°03'0 0.0
2017-Oct-12 10:59N 50°37' W 001°03'0 0.0
2017-Oct-12 10:29N 50°37' W 001°03'0 0.0
2017-Oct-12 09:59N 50°37' W 001°03'0 0.1
2017-Oct-12 09:29N 50°37' W 001°03'0 0.5
2017-Oct-12 08:59N 50°37' W 001°03'0 0.1
2017-Oct-12 08:29N 50°37' W 001°03'0 0.9
2017-Oct-12 08:00N 50°37' W 001°03'3 5.8
2017-Oct-12 07:30N 50°34' W 001°02'3 6.8
2017-Oct-12 07:00N 50°31' W 001°01'2 3.3
2017-Oct-12 06:30N 50°29' W 001°02'2 4.8
2017-Oct-12 06:00N 50°29' W 001°05'3 4.9
2017-Oct-12 05:29N 50°27' W 001°09'2 1.7
2017-Oct-12 04:03N 50°27' W 001°05'0 1.1
2017-Oct-12 04:00N 50°28' W 001°05'1 1.0
2017-Oct-12 03:30N 50°28' W 001°04'0 1.0
2017-Oct-12 03:00N 50°28' W 001°04'2 3.2
2017-Oct-12 02:30N 50°29' W 001°01'1 2.9
2017-Oct-12 02:00N 50°29' W 000°59'1 2.2
2017-Oct-12 01:30N 50°29' W 000°57'2 1.9
2017-Oct-12 00:40N 50°29' W 000°55'0 3.1
2017-Oct-12 00:30N 50°29' W 000°54'2 3.9
2017-Oct-12 00:00N 50°29' W 000°51'1 2.2
2017-Oct-11 23:30N 50°30' W 000°50'2 3.9
2017-Oct-11 23:00N 50°30' W 000°53'2 3.4
2017-Oct-11 22:27N 50°29' W 000°55'1 3.1
2017-Oct-11 21:59N 50°28' W 000°57'1 2.8
2017-Oct-11 21:30N 50°28' W 000°59'2 3.3
2017-Oct-11 21:00N 50°28' W 001°02'3 6.7
2017-Oct-11 20:29N 50°30' W 001°06'0 0.9
2017-Oct-11 20:00N 50°30' W 001°06'1 1.4
2017-Oct-11 19:30N 50°29' W 001°05'1 1.6
2017-Oct-11 19:00N 50°28' W 001°04'1 1.8
2017-Oct-11 18:30N 50°28' W 001°03'1 1.7
2017-Oct-11 18:00N 50°27' W 001°02'2 3.9
2017-Oct-11 17:30N 50°27' W 000°59'2 4.6
2017-Oct-11 16:59N 50°29' W 000°56'10 0.6
2017-Oct-10 23:59N 50°38' W 001°01'0 0.1
2017-Oct-10 23:29N 50°38' W 001°01'0 0.0
2017-Oct-10 22:59N 50°38' W 001°01'0 0.1
2017-Oct-10 22:29N 50°38' W 001°01'0 0.1
2017-Oct-10 21:59N 50°38' W 001°01'0 0.0
2017-Oct-10 21:29N 50°38' W 001°01'0 0.0
2017-Oct-10 20:59N 50°38' W 001°01'0 0.0
2017-Oct-10 20:29N 50°38' W 001°01'0 0.0
2017-Oct-10 19:59N 50°38' W 001°01'0 0.5
2017-Oct-10 19:29N 50°38' W 001°02'0 0.3
2017-Oct-10 18:59N 50°38' W 001°02'0 0.0
2017-Oct-10 18:29N 50°38' W 001°02'0 0.0
2017-Oct-10 17:59N 50°38' W 001°02'0 0.0
2017-Oct-10 17:29N 50°38' W 001°02'0 0.0
2017-Oct-10 16:59N 50°38' W 001°02'0 0.0
2017-Oct-10 16:29N 50°38' W 001°02'0 0.0
2017-Oct-10 15:59N 50°38' W 001°02'0 0.0
2017-Oct-10 15:29N 50°38' W 001°02'0 0.1
2017-Oct-10 14:59N 50°38' W 001°02'0 0.4
2017-Oct-10 13:59N 50°38' W 001°02'0 0.0
2017-Oct-10 13:29N 50°38' W 001°02'0 0.0
2017-Oct-10 12:59N 50°38' W 001°02'0 0.0
2017-Oct-10 12:29N 50°38' W 001°02'0 0.0
2017-Oct-10 11:59N 50°38' W 001°02'0 0.1
2017-Oct-10 11:29N 50°38' W 001°02'0 0.0
2017-Oct-10 10:59N 50°38' W 001°02'0 0.1
2017-Oct-10 10:29N 50°38' W 001°02'0 0.1
2017-Oct-10 09:59N 50°38' W 001°02'0 0.0
2017-Oct-10 09:29N 50°38' W 001°02'0 0.0
2017-Oct-10 08:59N 50°38' W 001°02'0 0.0
2017-Oct-10 08:29N 50°38' W 001°02'0 0.0
2017-Oct-10 07:59N 50°38' W 001°02'0 0.2
2017-Oct-10 07:29N 50°38' W 001°02'0 0.4
2017-Oct-10 06:59N 50°38' W 001°02'0 0.1
2017-Oct-10 06:29N 50°38' W 001°02'0 0.0
2017-Oct-10 05:59N 50°38' W 001°02'0 0.0
2017-Oct-10 05:29N 50°38' W 001°02'0 0.0
2017-Oct-10 04:59N 50°38' W 001°02'0 0.1
2017-Oct-10 04:29N 50°38' W 001°02'0 0.3
2017-Oct-10 03:59N 50°38' W 001°02'0 0.1
2017-Oct-10 03:29N 50°38' W 001°02'0 0.2
2017-Oct-10 02:59N 50°38' W 001°02'0 0.0
2017-Oct-10 02:29N 50°38' W 001°02'0 0.3
2017-Oct-10 01:59N 50°38' W 001°02'0 0.5
2017-Oct-10 01:29N 50°38' W 001°02'0 0.1
2017-Oct-10 00:59N 50°38' W 001°02'0 0.0
2017-Oct-10 00:29N 50°38' W 001°02'0 0.1
2017-Oct-09 23:59N 50°38' W 001°02'0 0.0
2017-Oct-09 23:29N 50°38' W 001°02'0 0.0
2017-Oct-09 22:59N 50°38' W 001°02'0 0.0
2017-Oct-09 22:29N 50°38' W 001°02'0 0.0
2017-Oct-09 21:59N 50°38' W 001°02'0 0.0
2017-Oct-09 21:29N 50°38' W 001°02'0 0.0
2017-Oct-09 20:59N 50°38' W 001°02'0 0.0
2017-Oct-09 20:29N 50°38' W 001°02'0 0.0
2017-Oct-09 19:59N 50°38' W 001°02'0 0.2
2017-Oct-09 19:29N 50°38' W 001°02'0 0.5
2017-Oct-09 18:59N 50°38' W 001°02'0 0.1
2017-Oct-09 18:29N 50°38' W 001°02'0 0.0
2017-Oct-09 17:59N 50°38' W 001°02'0 0.0
2017-Oct-09 17:29N 50°38' W 001°02'0 0.0
2017-Oct-09 16:59N 50°38' W 001°02'0 0.0
2017-Oct-09 16:29N 50°38' W 001°02'0 0.0
2017-Oct-09 15:59N 50°38' W 001°02'0 0.1
2017-Oct-09 15:29N 50°38' W 001°02'0 0.2
2017-Oct-09 14:59N 50°38' W 001°02'0 0.2
2017-Oct-09 14:29N 50°38' W 001°02'0 0.3
2017-Oct-09 13:59N 50°38' W 001°02'0 0.5
2017-Oct-09 13:29N 50°38' W 001°02'0 0.3
2017-Oct-09 12:59N 50°38' W 001°02'0 0.0
2017-Oct-09 12:29N 50°38' W 001°02'0 0.0
2017-Oct-09 11:59N 50°38' W 001°02'0 0.0
2017-Oct-09 11:29N 50°38' W 001°02'0 0.0
2017-Oct-09 10:56N 50°38' W 001°02'0 0.0
2017-Oct-09 10:29N 50°38' W 001°02'0 0.0
2017-Oct-09 09:59N 50°38' W 001°02'0 0.0
2017-Oct-09 09:29N 50°38' W 001°02'0 0.0
2017-Oct-09 08:59N 50°38' W 001°02'0 0.0
2017-Oct-09 08:29N 50°38' W 001°02'0 0.0
2017-Oct-09 07:59N 50°38' W 001°02'0 0.0
2017-Oct-09 07:29N 50°38' W 001°02'0 0.3
2017-Oct-09 06:59N 50°38' W 001°02'0 0.3
2017-Oct-09 06:29N 50°38' W 001°02'0 0.1
2017-Oct-09 05:59N 50°38' W 001°02'0 0.1
2017-Oct-09 05:29N 50°38' W 001°02'0 0.2
2017-Oct-09 04:59N 50°38' W 001°02'0 0.1
2017-Oct-09 04:29N 50°38' W 001°02'0 0.0
2017-Oct-09 03:59N 50°38' W 001°02'0 0.0
2017-Oct-09 03:29N 50°38' W 001°02'0 0.2
2017-Oct-09 02:59N 50°38' W 001°02'0 0.1
2017-Oct-09 02:29N 50°38' W 001°02'0 0.0
2017-Oct-09 01:59N 50°38' W 001°02'0 0.0
2017-Oct-09 01:29N 50°38' W 001°02'0 0.5
2017-Oct-09 00:59N 50°38' W 001°02'0 0.1
2017-Oct-09 00:29N 50°38' W 001°02'0 0.0
2017-Oct-08 23:59N 50°38' W 001°02'0 0.0
2017-Oct-08 23:29N 50°38' W 001°02'0 0.0
2017-Oct-08 22:59N 50°38' W 001°02'0 0.0
2017-Oct-08 22:29N 50°38' W 001°02'0 0.0
2017-Oct-08 21:59N 50°38' W 001°02'0 0.0
2017-Oct-08 21:29N 50°38' W 001°02'0 0.0
2017-Oct-08 20:59N 50°38' W 001°02'0 0.0
2017-Oct-08 20:29N 50°38' W 001°02'0 0.0
2017-Oct-08 19:59N 50°38' W 001°02'0 0.0
2017-Oct-08 19:29N 50°38' W 001°02'0 0.0
2017-Oct-08 18:59N 50°38' W 001°02'0 0.5
2017-Oct-08 18:29N 50°38' W 001°02'0 0.1
2017-Oct-08 17:59N 50°38' W 001°02'0 0.0
2017-Oct-08 17:29N 50°38' W 001°02'0 0.0
2017-Oct-08 16:59N 50°38' W 001°02'0 0.1
2017-Oct-08 16:29N 50°38' W 001°02'0 0.0
2017-Oct-08 15:59N 50°38' W 001°02'0 0.3
2017-Oct-08 15:29N 50°38' W 001°02'0 0.1
2017-Oct-08 14:59N 50°38' W 001°02'0 0.0
2017-Oct-08 14:29N 50°38' W 001°02'0 0.0
2017-Oct-08 13:59N 50°38' W 001°02'0 0.1
2017-Oct-08 13:29N 50°38' W 001°02'0 0.0
2017-Oct-08 12:59N 50°38' W 001°02'0 0.5
2017-Oct-08 12:29N 50°38' W 001°02'0 0.1
2017-Oct-08 11:59N 50°38' W 001°02'0 0.0
2017-Oct-08 11:29N 50°38' W 001°02'0 0.0
2017-Oct-08 10:59N 50°38' W 001°02'0 0.0
2017-Oct-08 10:29N 50°38' W 001°02'0 0.0
2017-Oct-08 09:59N 50°38' W 001°02'0 0.0
2017-Oct-08 09:29N 50°38' W 001°02'0 0.0
2017-Oct-08 08:59N 50°38' W 001°02'0 0.0
2017-Oct-08 08:29N 50°38' W 001°02'0 0.0
2017-Oct-08 07:59N 50°38' W 001°02'0 0.0
2017-Oct-08 07:29N 50°38' W 001°02'0 0.0
2017-Oct-08 06:59N 50°38' W 001°02'0 0.3
2017-Oct-08 06:29N 50°38' W 001°02'0 0.4
2017-Oct-08 05:59N 50°38' W 001°02'0 0.1
2017-Oct-08 05:29N 50°38' W 001°02'0 0.0
2017-Oct-08 04:59N 50°38' W 001°02'0 0.0
2017-Oct-08 04:29N 50°38' W 001°02'0 0.0
2017-Oct-08 03:59N 50°38' W 001°02'0 0.0
2017-Oct-08 03:29N 50°38' W 001°02'0 0.0
2017-Oct-08 02:59N 50°38' W 001°02'0 0.0
2017-Oct-08 02:29N 50°38' W 001°02'0 0.1
2017-Oct-08 01:59N 50°38' W 001°02'0 0.1
2017-Oct-08 01:29N 50°38' W 001°02'0 0.2
2017-Oct-08 00:59N 50°38' W 001°02'1 1.9
2017-Oct-08 00:30N 50°37' W 001°02'5 9.9
2017-Oct-08 00:00N 50°32' W 001°06'713.0
2017-Oct-07 23:30N 50°30' W 001°16'714.8
2017-Oct-07 23:00N 50°29' W 001°27'815.5
2017-Oct-07 22:30N 50°29' W 001°39'816.2
2017-Oct-07 22:00N 50°28' W 001°52'3016.5
2017-Oct-07 20:12N 50°25' W 002°39'315.9
2017-Oct-07 20:00N 50°25' W 002°43'815.5
2017-Oct-07 19:29N 50°25' W 002°56'715.1
2017-Oct-07 19:00N 50°24' W 003°07'714.5
2017-Oct-07 18:31N 50°23' W 003°19'4 8.2
2017-Oct-07 18:01N 50°24' W 003°25'3 6.1
2017-Oct-07 17:31N 50°21' W 003°25'5 9.8
2017-Oct-07 17:00N 50°16' W 003°26'612.7
2017-Oct-07 16:30N 50°10' W 003°30'714.0
2017-Oct-07 16:00N 50°06' W 003°39'713.5
2017-Oct-07 15:30N 50°03' W 003°49'713.6
2017-Oct-07 15:00N 50°02' W 003°59'713.6
2017-Oct-07 14:30N 50°01' W 004°09'713.7
2017-Oct-07 13:58N 49°58' W 004°20'613.5
2017-Oct-07 13:30N 49°56' W 004°29'713.3
2017-Oct-07 13:00N 49°54' W 004°39'713.1
2017-Oct-07 12:30N 49°52' W 004°49'912.6
2017-Oct-07 11:49N 49°49' W 005°02'412.0
2017-Oct-07 11:30N 49°49' W 005°07'  
Track history (hours):
 
Tides and Currents Weather Stations Pressure Air Temp Water Temp Dewpoint Dewpoint Depression Visibility Wind Speed Wind Dir Waves Ship Positions

Maran Sagitta

Last reported at 2017-Oct-17 10:00 UTC. Time now 2017-Oct-17 10:11 UTC.
Position N 51°27' E 003°40'.

Length 244 m; draft 8.6 m.

Type: Tanker. MMSI: 240892000.

Date/timePositionNaut miles runAvg speedWind from/ knotsBaromVisibWave heightAir tempDewpointWater temp
2017-Oct-17 10:00N 51°27' E 003°40'0 0.0
2017-Oct-17 09:24N 51°27' E 003°40'0 0.0
2017-Oct-17 08:54N 51°27' E 003°40'0 0.0
2017-Oct-17 08:30N 51°27' E 003°40'0 0.0
2017-Oct-17 07:57N 51°27' E 003°40'0 0.0
2017-Oct-17 07:30N 51°27' E 003°40'0 0.0
2017-Oct-17 06:57N 51°27' E 003°40'0 0.0
2017-Oct-17 06:30N 51°27' E 003°40'0 0.0
2017-Oct-17 06:00N 51°27' E 003°40'0 0.0
2017-Oct-17 05:30N 51°27' E 003°40'0 0.0
2017-Oct-17 04:57N 51°27' E 003°40'0 0.0
2017-Oct-17 04:30N 51°27' E 003°40'0 0.0
2017-Oct-17 04:00N 51°27' E 003°40'0 0.0
2017-Oct-17 03:27N 51°27' E 003°40'0 0.0
2017-Oct-17 03:00N 51°27' E 003°40'0 0.0
2017-Oct-17 02:30N 51°27' E 003°40'0 0.0
2017-Oct-17 01:57N 51°27' E 003°40'0 0.0
2017-Oct-17 01:27N 51°27' E 003°40'0 0.0
2017-Oct-17 01:00N 51°27' E 003°40'0 0.0
2017-Oct-17 00:30N 51°27' E 003°40'0 0.0
2017-Oct-17 00:00N 51°27' E 003°40'1 1.6
2017-Oct-16 23:31N 51°27' E 003°40'4 7.1
2017-Oct-16 23:00N 51°25' E 003°34'3 6.9
2017-Oct-16 22:30N 51°25' E 003°29'3 5.1
2017-Oct-16 22:01N 51°25' E 003°25'4 7.7
2017-Oct-16 21:31N 51°24' E 003°19'4 8.7
2017-Oct-16 21:01N 51°24' E 003°12'4 8.0
2017-Oct-16 20:31N 51°24' E 003°05'3 6.1
2017-Oct-16 20:01N 51°23' E 003°00'3 5.9
2017-Oct-16 19:30N 51°22' E 002°56'3 6.6
2017-Oct-16 19:00N 51°21' E 002°51'5 9.3
2017-Oct-16 18:29N 51°21' E 002°43'3 7.1
2017-Oct-16 18:00N 51°20' E 002°38'1 1.8
2017-Oct-16 17:16N 51°20' E 002°36'0 0.1
2017-Oct-16 16:43N 51°20' E 002°36'0 0.3
2017-Oct-16 16:28N 51°20' E 002°36'0 0.1
2017-Oct-16 15:55N 51°20' E 002°36'0 0.0
2017-Oct-16 15:28N 51°20' E 002°36'0 0.1
2017-Oct-16 14:58N 51°20' E 002°36'0 0.0
2017-Oct-16 14:28N 51°20' E 002°36'0 0.0
2017-Oct-16 13:28N 51°20' E 002°36'0 0.0
2017-Oct-16 12:58N 51°20' E 002°36'0 0.0
2017-Oct-16 12:28N 51°20' E 002°36'0 0.0
2017-Oct-16 11:58N 51°20' E 002°36'0 0.0
2017-Oct-16 11:28N 51°20' E 002°36'0 0.0
2017-Oct-16 10:59N 51°20' E 002°36'0 0.0
2017-Oct-16 10:25N 51°20' E 002°36'0 0.0
2017-Oct-16 09:58N 51°20' E 002°36'0 0.0
2017-Oct-16 09:28N 51°20' E 002°36'0 0.0
2017-Oct-16 08:58N 51°20' E 002°36'0 0.1
2017-Oct-16 08:28N 51°20' E 002°36'0 0.0
2017-Oct-16 07:58N 51°20' E 002°36'0 0.2
2017-Oct-16 07:28N 51°20' E 002°36'0 0.2
2017-Oct-16 06:58N 51°20' E 002°36'0 0.1
2017-Oct-16 06:28N 51°20' E 002°36'0 0.7
2017-Oct-16 06:00N 51°20' E 002°36'2 3.7
2017-Oct-16 05:30N 51°21' E 002°33'4 8.5
2017-Oct-16 05:00N 51°21' E 002°26'611.8
2017-Oct-16 04:30N 51°18' E 002°18'611.8
2017-Oct-16 04:00N 51°15' E 002°10'611.7
2017-Oct-16 03:30N 51°12' E 002°02'611.8
2017-Oct-16 03:00N 51°09' E 001°54'611.6
2017-Oct-16 02:30N 51°06' E 001°46'611.8
2017-Oct-16 02:00N 51°01' E 001°40'612.3
2017-Oct-16 01:30N 50°57' E 001°33'612.9
2017-Oct-16 01:00N 50°51' E 001°28'713.2
2017-Oct-16 00:30N 50°45' E 001°24'713.0
2017-Oct-16 00:00N 50°39' E 001°19'1213.4
2017-Oct-15 23:05N 50°32' E 001°04'113.4
2017-Oct-15 23:00N 50°31' E 001°02'1013.1
2017-Oct-15 22:14N 50°26' E 000°48'713.3
2017-Oct-15 21:40N 50°25' E 000°36'513.4
2017-Oct-15 21:20N 50°25' E 000°29'413.4
2017-Oct-15 21:01N 50°24' E 000°23'713.6
2017-Oct-15 20:30N 50°23' E 000°12'713.8
2017-Oct-15 20:00N 50°22' E 000°01'713.7
2017-Oct-15 19:31N 50°23' W 000°09'713.8
2017-Oct-15 19:01N 50°26' W 000°19'714.0
2017-Oct-15 18:31N 50°29' W 000°29'714.1
2017-Oct-15 18:01N 50°32' W 000°39'714.0
2017-Oct-15 17:30N 50°36' W 000°48'713.5
2017-Oct-15 17:00N 50°40' W 000°56'5 9.8
2017-Oct-15 16:30N 50°43' W 001°02'713.9
2017-Oct-15 16:00N 50°46' W 001°12'4 8.4
2017-Oct-15 15:31N 50°48' W 001°18'3 5.1
2017-Oct-15 15:00N 50°50' W 001°20'0 0.0
2017-Oct-15 14:00N 50°50' W 001°20'0 0.0
2017-Oct-15 13:30N 50°50' W 001°20'0 0.0
2017-Oct-15 13:00N 50°50' W 001°20'0 0.0
2017-Oct-15 12:30N 50°50' W 001°20'0 0.0
2017-Oct-15 12:00N 50°50' W 001°20'0 0.0
2017-Oct-15 11:30N 50°50' W 001°20'0 0.0
2017-Oct-15 11:00N 50°50' W 001°20'0 0.0
2017-Oct-15 10:30N 50°50' W 001°20'0 0.0
2017-Oct-15 10:00N 50°50' W 001°20'0 0.0
2017-Oct-15 09:30N 50°50' W 001°20'0 0.0
2017-Oct-15 09:00N 50°50' W 001°20'0 0.0
2017-Oct-15 08:30N 50°50' W 001°20'0 0.0
2017-Oct-15 08:00N 50°50' W 001°20'0 0.0
2017-Oct-15 07:30N 50°50' W 001°20'0 0.0
2017-Oct-15 07:00N 50°50' W 001°20'0 0.0
2017-Oct-15 06:30N 50°50' W 001°20'0 0.0
2017-Oct-15 06:00N 50°50' W 001°20'0 0.0
2017-Oct-15 05:30N 50°50' W 001°20'0 0.0
2017-Oct-15 05:00N 50°50' W 001°20'0 0.0
2017-Oct-15 04:30N 50°50' W 001°20'0 0.0
2017-Oct-15 04:00N 50°50' W 001°20'0 0.0
2017-Oct-15 03:30N 50°50' W 001°20'0 0.0
2017-Oct-15 03:00N 50°50' W 001°20'0 0.0
2017-Oct-15 02:30N 50°50' W 001°20'0 0.0
2017-Oct-15 02:00N 50°50' W 001°20'0 0.0
2017-Oct-15 01:30N 50°50' W 001°20'0 0.0
2017-Oct-15 01:00N 50°50' W 001°20'0 0.0
2017-Oct-15 00:30N 50°50' W 001°20'0 0.0
2017-Oct-15 00:00N 50°50' W 001°20'0 0.0
2017-Oct-14 23:30N 50°50' W 001°20'0 0.0
2017-Oct-14 23:00N 50°50' W 001°20'0 0.0
2017-Oct-14 22:30N 50°50' W 001°20'0 0.0
2017-Oct-14 22:00N 50°50' W 001°20'0 0.0
2017-Oct-14 21:30N 50°50' W 001°20'0 0.0
2017-Oct-14 21:00N 50°50' W 001°20'0 0.0
2017-Oct-14 20:30N 50°50' W 001°20'0 0.0
2017-Oct-14 20:00N 50°50' W 001°20'0 0.0
2017-Oct-14 19:30N 50°50' W 001°20'0 0.0
2017-Oct-14 19:00N 50°50' W 001°20'0 0.0
2017-Oct-14 18:30N 50°50' W 001°20'0 0.0
2017-Oct-14 18:00N 50°50' W 001°20'0 0.0
2017-Oct-14 17:30N 50°50' W 001°20'0 0.0
2017-Oct-14 17:00N 50°50' W 001°20'0 0.0
2017-Oct-14 16:30N 50°50' W 001°20'0 0.0
2017-Oct-14 16:00N 50°50' W 001°20'0 0.0
2017-Oct-14 15:30N 50°50' W 001°20'0 0.0
2017-Oct-14 15:00N 50°50' W 001°20'0 0.0
2017-Oct-14 14:30N 50°50' W 001°20'0 0.0
2017-Oct-14 14:00N 50°50' W 001°20'0 0.0
2017-Oct-14 13:30N 50°50' W 001°20'0 0.0
2017-Oct-14 13:00N 50°50' W 001°20'0 0.0
2017-Oct-14 12:30N 50°50' W 001°20'0 0.0
2017-Oct-14 12:00N 50°50' W 001°20'0 0.0
2017-Oct-14 11:30N 50°50' W 001°20'0 0.0
2017-Oct-14 11:00N 50°50' W 001°20'0 0.0
2017-Oct-14 10:30N 50°50' W 001°20'0 0.0
2017-Oct-14 10:00N 50°50' W 001°20'0 0.0
2017-Oct-14 09:30N 50°50' W 001°20'0 0.0
2017-Oct-14 09:00N 50°50' W 001°20'0 0.0
2017-Oct-14 08:30N 50°50' W 001°20'0 0.0
2017-Oct-14 08:00N 50°50' W 001°20'0 0.0
2017-Oct-14 07:30N 50°50' W 001°20'0 0.0
2017-Oct-14 07:00N 50°50' W 001°20'0 0.0
2017-Oct-14 06:30N 50°50' W 001°20'0 0.0
2017-Oct-14 06:00N 50°50' W 001°20'0 0.0
2017-Oct-14 05:30N 50°50' W 001°20'1 1.0
2017-Oct-14 05:01N 50°50' W 001°19'3 6.8
2017-Oct-14 04:30N 50°47' W 001°18'611.7
2017-Oct-14 04:00N 50°46' W 001°09'611.9
2017-Oct-14 03:30N 50°43' W 001°00'510.0
2017-Oct-14 03:00N 50°39' W 000°56'2 5.0
2017-Oct-14 02:30N 50°37' W 000°59'2 4.1
2017-Oct-14 01:59N 50°37' W 001°03'0 0.2
2017-Oct-14 01:29N 50°37' W 001°03'0 0.0
2017-Oct-14 00:59N 50°37' W 001°03'0 0.0
2017-Oct-14 00:29N 50°37' W 001°03'0 0.0
2017-Oct-13 23:59N 50°37' W 001°03'0 0.0
2017-Oct-13 23:29N 50°37' W 001°03'0 0.3
2017-Oct-13 22:56N 50°37' W 001°03'0 0.2
2017-Oct-13 22:29N 50°37' W 001°03'0 0.1
2017-Oct-13 21:59N 50°37' W 001°03'0 0.0
2017-Oct-13 21:29N 50°37' W 001°03'0 0.0
2017-Oct-13 20:59N 50°37' W 001°03'0 0.0
2017-Oct-13 20:29N 50°37' W 001°03'0 0.0
2017-Oct-13 19:59N 50°37' W 001°03'0 0.0
2017-Oct-13 19:29N 50°37' W 001°03'0 0.0
2017-Oct-13 18:59N 50°37' W 001°03'0 0.0
2017-Oct-13 18:29N 50°37' W 001°03'0 0.3
2017-Oct-13 17:59N 50°37' W 001°03'0 0.3
2017-Oct-13 17:29N 50°37' W 001°03'0 0.1
2017-Oct-13 16:59N 50°37' W 001°03'0 0.0
2017-Oct-13 16:29N 50°37' W 001°03'0 0.0
2017-Oct-13 15:59N 50°37' W 001°03'0 0.0
2017-Oct-13 15:29N 50°37' W 001°03'0 0.0
2017-Oct-13 14:59N 50°37' W 001°03'0 0.0
2017-Oct-13 14:29N 50°37' W 001°03'0 0.0
2017-Oct-13 13:59N 50°37' W 001°03'0 0.0
2017-Oct-13 13:29N 50°37' W 001°03'0 0.0
2017-Oct-13 12:59N 50°37' W 001°03'0 0.0
2017-Oct-13 12:29N 50°37' W 001°03'0 0.0
2017-Oct-13 11:59N 50°37' W 001°03'0 0.0
2017-Oct-13 11:29N 50°37' W 001°03'0 0.0
2017-Oct-13 10:59N 50°37' W 001°03'0 0.0
2017-Oct-13 10:29N 50°37' W 001°03'0 0.3
2017-Oct-13 09:59N 50°37' W 001°03'0 0.4
2017-Oct-13 09:29N 50°37' W 001°03'0 0.1
2017-Oct-13 08:59N 50°37' W 001°03'0 0.0
2017-Oct-13 08:29N 50°37' W 001°03'0 0.0
2017-Oct-13 07:59N 50°37' W 001°03'0 0.0
2017-Oct-13 07:29N 50°37' W 001°03'0 0.0
2017-Oct-13 06:59N 50°37' W 001°03'0 0.0
2017-Oct-13 06:29N 50°37' W 001°03'0 0.0
2017-Oct-13 05:59N 50°37' W 001°03'0 0.1
2017-Oct-13 05:29N 50°37' W 001°03'0 0.3
2017-Oct-13 04:59N 50°37' W 001°03'0 0.2
2017-Oct-13 04:29N 50°37' W 001°03'0 0.1
2017-Oct-13 03:59N 50°37' W 001°03'0 0.1
2017-Oct-13 03:29N 50°37' W 001°03'0 0.0
2017-Oct-13 02:59N 50°37' W 001°03'0 0.0
2017-Oct-13 02:29N 50°37' W 001°03'0 0.0
2017-Oct-13 01:59N 50°37' W 001°03'0 0.0
2017-Oct-13 01:29N 50°37' W 001°03'0 0.0
2017-Oct-13 00:59N 50°37' W 001°03'0 0.0
2017-Oct-13 00:29N 50°37' W 001°03'0 0.0
2017-Oct-12 23:59N 50°37' W 001°03'0 0.0
2017-Oct-12 23:29N 50°37' W 001°03'0 0.0
2017-Oct-12 22:59N 50°37' W 001°03'0 0.0
2017-Oct-12 22:29N 50°37' W 001°03'0 0.2
2017-Oct-12 21:59N 50°37' W 001°03'0 0.4
2017-Oct-12 21:29N 50°37' W 001°03'0 0.1
2017-Oct-12 20:59N 50°37' W 001°03'0 0.0
2017-Oct-12 20:29N 50°37' W 001°03'0 0.0
2017-Oct-12 19:59N 50°37' W 001°03'0 0.0
2017-Oct-12 19:29N 50°37' W 001°03'0 0.0
2017-Oct-12 18:59N 50°37' W 001°03'0 0.0
2017-Oct-12 18:29N 50°37' W 001°03'0 0.0
2017-Oct-12 17:59N 50°37' W 001°03'0 0.0
2017-Oct-12 17:29N 50°37' W 001°03'0 0.0
2017-Oct-12 16:59N 50°37' W 001°03'0 0.2
2017-Oct-12 16:29N 50°37' W 001°03'0 0.4
2017-Oct-12 15:59N 50°37' W 001°03'0 0.2
2017-Oct-12 15:29N 50°37' W 001°03'0 0.1
2017-Oct-12 14:59N 50°37' W 001°03'0 0.0
2017-Oct-12 14:29N 50°37' W 001°03'0 0.0
2017-Oct-12 13:59N 50°37' W 001°03'0 0.0
2017-Oct-12 13:29N 50°37' W 001°03'0 0.0
2017-Oct-12 12:59N 50°37' W 001°03'0 0.0
2017-Oct-12 12:29N 50°37' W 001°03'0 0.0
2017-Oct-12 11:59N 50°37' W 001°03'0 0.0
2017-Oct-12 11:29N 50°37' W 001°03'0 0.0
2017-Oct-12 10:59N 50°37' W 001°03'0 0.0
2017-Oct-12 10:29N 50°37' W 001°03'0 0.0
2017-Oct-12 09:59N 50°37' W 001°03'0 0.1
2017-Oct-12 09:29N 50°37' W 001°03'0 0.5
2017-Oct-12 08:59N 50°37' W 001°03'0 0.1
2017-Oct-12 08:29N 50°37' W 001°03'0 0.9
2017-Oct-12 08:00N 50°37' W 001°03'3 5.8
2017-Oct-12 07:30N 50°34' W 001°02'3 6.8
2017-Oct-12 07:00N 50°31' W 001°01'2 3.3
2017-Oct-12 06:30N 50°29' W 001°02'2 4.8
2017-Oct-12 06:00N 50°29' W 001°05'3 4.9
2017-Oct-12 05:29N 50°27' W 001°09'2 1.7
2017-Oct-12 04:03N 50°27' W 001°05'0 1.1
2017-Oct-12 04:00N 50°28' W 001°05'1 1.0
2017-Oct-12 03:30N 50°28' W 001°04'0 1.0
2017-Oct-12 03:00N 50°28' W 001°04'2 3.2
2017-Oct-12 02:30N 50°29' W 001°01'1 2.9
2017-Oct-12 02:00N 50°29' W 000°59'1 2.2
2017-Oct-12 01:30N 50°29' W 000°57'2 1.9
2017-Oct-12 00:40N 50°29' W 000°55'0 3.1
2017-Oct-12 00:30N 50°29' W 000°54'2 3.9
2017-Oct-12 00:00N 50°29' W 000°51'1 2.2
2017-Oct-11 23:30N 50°30' W 000°50'2 3.9
2017-Oct-11 23:00N 50°30' W 000°53'2 3.4
2017-Oct-11 22:27N 50°29' W 000°55'1 3.1
2017-Oct-11 21:59N 50°28' W 000°57'1 2.8
2017-Oct-11 21:30N 50°28' W 000°59'2 3.3
2017-Oct-11 21:00N 50°28' W 001°02'3 6.7
2017-Oct-11 20:29N 50°30' W 001°06'0 0.9
2017-Oct-11 20:00N 50°30' W 001°06'1 1.4
2017-Oct-11 19:30N 50°29' W 001°05'1 1.6
2017-Oct-11 19:00N 50°28' W 001°04'1 1.8
2017-Oct-11 18:30N 50°28' W 001°03'1 1.7
2017-Oct-11 18:00N 50°27' W 001°02'2 3.9
2017-Oct-11 17:30N 50°27' W 000°59'2 4.6
2017-Oct-11 16:59N 50°29' W 000°56'10 0.6
2017-Oct-10 23:59N 50°38' W 001°01'0 0.1
2017-Oct-10 23:29N 50°38' W 001°01'0 0.0
2017-Oct-10 22:59N 50°38' W 001°01'0 0.1
2017-Oct-10 22:29N 50°38' W 001°01'0 0.1
2017-Oct-10 21:59N 50°38' W 001°01'0 0.0
2017-Oct-10 21:29N 50°38' W 001°01'0 0.0
2017-Oct-10 20:59N 50°38' W 001°01'0 0.0
2017-Oct-10 20:29N 50°38' W 001°01'0 0.0
2017-Oct-10 19:59N 50°38' W 001°01'0 0.5
2017-Oct-10 19:29N 50°38' W 001°02'0 0.3
2017-Oct-10 18:59N 50°38' W 001°02'0 0.0
2017-Oct-10 18:29N 50°38' W 001°02'0 0.0
2017-Oct-10 17:59N 50°38' W 001°02'0 0.0
2017-Oct-10 17:29N 50°38' W 001°02'0 0.0
2017-Oct-10 16:59N 50°38' W 001°02'0 0.0
2017-Oct-10 16:29N 50°38' W 001°02'0 0.0
2017-Oct-10 15:59N 50°38' W 001°02'0 0.0
2017-Oct-10 15:29N 50°38' W 001°02'0 0.1
2017-Oct-10 14:59N 50°38' W 001°02'0 0.4
2017-Oct-10 13:59N 50°38' W 001°02'0 0.0
2017-Oct-10 13:29N 50°38' W 001°02'0 0.0
2017-Oct-10 12:59N 50°38' W 001°02'0 0.0
2017-Oct-10 12:29N 50°38' W 001°02'0 0.0
2017-Oct-10 11:59N 50°38' W 001°02'0 0.1
2017-Oct-10 11:29N 50°38' W 001°02'0 0.0
2017-Oct-10 10:59N 50°38' W 001°02'0 0.1
2017-Oct-10 10:29N 50°38' W 001°02'0 0.1
2017-Oct-10 09:59N 50°38' W 001°02'0 0.0
2017-Oct-10 09:29N 50°38' W 001°02'0 0.0
2017-Oct-10 08:59N 50°38' W 001°02'0 0.0
2017-Oct-10 08:29N 50°38' W 001°02'0 0.0
2017-Oct-10 07:59N 50°38' W 001°02'0 0.2
2017-Oct-10 07:29N 50°38' W 001°02'0 0.4
2017-Oct-10 06:59N 50°38' W 001°02'0 0.1
2017-Oct-10 06:29N 50°38' W 001°02'0 0.0
2017-Oct-10 05:59N 50°38' W 001°02'0 0.0
2017-Oct-10 05:29N 50°38' W 001°02'0 0.0
2017-Oct-10 04:59N 50°38' W 001°02'0 0.1
2017-Oct-10 04:29N 50°38' W 001°02'0 0.3
2017-Oct-10 03:59N 50°38' W 001°02'0 0.1
2017-Oct-10 03:29N 50°38' W 001°02'0 0.2
2017-Oct-10 02:59N 50°38' W 001°02'0 0.0
2017-Oct-10 02:29N 50°38' W 001°02'0 0.3
2017-Oct-10 01:59N 50°38' W 001°02'0 0.5
2017-Oct-10 01:29N 50°38' W 001°02'0 0.1
2017-Oct-10 00:59N 50°38' W 001°02'0 0.0
2017-Oct-10 00:29N 50°38' W 001°02'0 0.1
2017-Oct-09 23:59N 50°38' W 001°02'0 0.0
2017-Oct-09 23:29N 50°38' W 001°02'0 0.0
2017-Oct-09 22:59N 50°38' W 001°02'0 0.0
2017-Oct-09 22:29N 50°38' W 001°02'0 0.0
2017-Oct-09 21:59N 50°38' W 001°02'0 0.0
2017-Oct-09 21:29N 50°38' W 001°02'0 0.0
2017-Oct-09 20:59N 50°38' W 001°02'0 0.0
2017-Oct-09 20:29N 50°38' W 001°02'0 0.0
2017-Oct-09 19:59N 50°38' W 001°02'0 0.2
2017-Oct-09 19:29N 50°38' W 001°02'0 0.5
2017-Oct-09 18:59N 50°38' W 001°02'0 0.1
2017-Oct-09 18:29N 50°38' W 001°02'0 0.0
2017-Oct-09 17:59N 50°38' W 001°02'0 0.0
2017-Oct-09 17:29N 50°38' W 001°02'0 0.0
2017-Oct-09 16:59N 50°38' W 001°02'0 0.0
2017-Oct-09 16:29N 50°38' W 001°02'0 0.0
2017-Oct-09 15:59N 50°38' W 001°02'0 0.1
2017-Oct-09 15:29N 50°38' W 001°02'0 0.2
2017-Oct-09 14:59N 50°38' W 001°02'0 0.2
2017-Oct-09 14:29N 50°38' W 001°02'0 0.3
2017-Oct-09 13:59N 50°38' W 001°02'0 0.5
2017-Oct-09 13:29N 50°38' W 001°02'0 0.3
2017-Oct-09 12:59N 50°38' W 001°02'0 0.0
2017-Oct-09 12:29N 50°38' W 001°02'0 0.0
2017-Oct-09 11:59N 50°38' W 001°02'0 0.0
2017-Oct-09 11:29N 50°38' W 001°02'0 0.0
2017-Oct-09 10:56N 50°38' W 001°02'0 0.0
2017-Oct-09 10:29N 50°38' W 001°02'0 0.0
2017-Oct-09 09:59N 50°38' W 001°02'0 0.0
2017-Oct-09 09:29N 50°38' W 001°02'0 0.0
2017-Oct-09 08:59N 50°38' W 001°02'0 0.0
2017-Oct-09 08:29N 50°38' W 001°02'0 0.0
2017-Oct-09 07:59N 50°38' W 001°02'0 0.0
2017-Oct-09 07:29N 50°38' W 001°02'0 0.3
2017-Oct-09 06:59N 50°38' W 001°02'0 0.3
2017-Oct-09 06:29N 50°38' W 001°02'0 0.1
2017-Oct-09 05:59N 50°38' W 001°02'0 0.1
2017-Oct-09 05:29N 50°38' W 001°02'0 0.2
2017-Oct-09 04:59N 50°38' W 001°02'0 0.1
2017-Oct-09 04:29N 50°38' W 001°02'0 0.0
2017-Oct-09 03:59N 50°38' W 001°02'0 0.0
2017-Oct-09 03:29N 50°38' W 001°02'0 0.2
2017-Oct-09 02:59N 50°38' W 001°02'0 0.1
2017-Oct-09 02:29N 50°38' W 001°02'0 0.0
2017-Oct-09 01:59N 50°38' W 001°02'0 0.0
2017-Oct-09 01:29N 50°38' W 001°02'0 0.5
2017-Oct-09 00:59N 50°38' W 001°02'0 0.1
2017-Oct-09 00:29N 50°38' W 001°02'0 0.0
2017-Oct-08 23:59N 50°38' W 001°02'0 0.0
2017-Oct-08 23:29N 50°38' W 001°02'0 0.0
2017-Oct-08 22:59N 50°38' W 001°02'0 0.0
2017-Oct-08 22:29N 50°38' W 001°02'0 0.0
2017-Oct-08 21:59N 50°38' W 001°02'0 0.0
2017-Oct-08 21:29N 50°38' W 001°02'0 0.0
2017-Oct-08 20:59N 50°38' W 001°02'0 0.0
2017-Oct-08 20:29N 50°38' W 001°02'0 0.0
2017-Oct-08 19:59N 50°38' W 001°02'0 0.0
2017-Oct-08 19:29N 50°38' W 001°02'0 0.0
2017-Oct-08 18:59N 50°38' W 001°02'0 0.5
2017-Oct-08 18:29N 50°38' W 001°02'0 0.1
2017-Oct-08 17:59N 50°38' W 001°02'0 0.0
2017-Oct-08 17:29N 50°38' W 001°02'0 0.0
2017-Oct-08 16:59N 50°38' W 001°02'0 0.1
2017-Oct-08 16:29N 50°38' W 001°02'0 0.0
2017-Oct-08 15:59N 50°38' W 001°02'0 0.3
2017-Oct-08 15:29N 50°38' W 001°02'0 0.1
2017-Oct-08 14:59N 50°38' W 001°02'0 0.0
2017-Oct-08 14:29N 50°38' W 001°02'0 0.0
2017-Oct-08 13:59N 50°38' W 001°02'0 0.1
2017-Oct-08 13:29N 50°38' W 001°02'0 0.0
2017-Oct-08 12:59N 50°38' W 001°02'0 0.5
2017-Oct-08 12:29N 50°38' W 001°02'0 0.1
2017-Oct-08 11:59N 50°38' W 001°02'0 0.0
2017-Oct-08 11:29N 50°38' W 001°02'0 0.0
2017-Oct-08 10:59N 50°38' W 001°02'0 0.0
2017-Oct-08 10:29N 50°38' W 001°02'0 0.0
2017-Oct-08 09:59N 50°38' W 001°02'0 0.0
2017-Oct-08 09:29N 50°38' W 001°02'0 0.0
2017-Oct-08 08:59N 50°38' W 001°02'0 0.0
2017-Oct-08 08:29N 50°38' W 001°02'0 0.0
2017-Oct-08 07:59N 50°38' W 001°02'0 0.0
2017-Oct-08 07:29N 50°38' W 001°02'0 0.0
2017-Oct-08 06:59N 50°38' W 001°02'0 0.3
2017-Oct-08 06:29N 50°38' W 001°02'0 0.4
2017-Oct-08 05:59N 50°38' W 001°02'0 0.1
2017-Oct-08 05:29N 50°38' W 001°02'0 0.0
2017-Oct-08 04:59N 50°38' W 001°02'0 0.0
2017-Oct-08 04:29N 50°38' W 001°02'0 0.0
2017-Oct-08 03:59N 50°38' W 001°02'0 0.0
2017-Oct-08 03:29N 50°38' W 001°02'0 0.0
2017-Oct-08 02:59N 50°38' W 001°02'0 0.0
2017-Oct-08 02:29N 50°38' W 001°02'0 0.1
2017-Oct-08 01:59N 50°38' W 001°02'0 0.1
2017-Oct-08 01:29N 50°38' W 001°02'0 0.2
2017-Oct-08 00:59N 50°38' W 001°02'1 1.9
2017-Oct-08 00:30N 50°37' W 001°02'5 9.9
2017-Oct-08 00:00N 50°32' W 001°06'713.0
2017-Oct-07 23:30N 50°30' W 001°16'714.8
2017-Oct-07 23:00N 50°29' W 001°27'815.5
2017-Oct-07 22:30N 50°29' W 001°39'816.2
2017-Oct-07 22:00N 50°28' W 001°52'3016.5
2017-Oct-07 20:12N 50°25' W 002°39'315.9
2017-Oct-07 20:00N 50°25' W 002°43'815.5
2017-Oct-07 19:29N 50°25' W 002°56'715.1
2017-Oct-07 19:00N 50°24' W 003°07'714.5
2017-Oct-07 18:31N 50°23' W 003°19'4 8.2
2017-Oct-07 18:01N 50°24' W 003°25'3 6.1
2017-Oct-07 17:31N 50°21' W 003°25'5 9.8
2017-Oct-07 17:00N 50°16' W 003°26'612.7
2017-Oct-07 16:30N 50°10' W 003°30'714.0
2017-Oct-07 16:00N 50°06' W 003°39'713.5
2017-Oct-07 15:30N 50°03' W 003°49'713.6
2017-Oct-07 15:00N 50°02' W 003°59'713.6
2017-Oct-07 14:30N 50°01' W 004°09'713.7
2017-Oct-07 13:58N 49°58' W 004°20'613.5
2017-Oct-07 13:30N 49°56' W 004°29'713.3
2017-Oct-07 13:00N 49°54' W 004°39'713.1
2017-Oct-07 12:30N 49°52' W 004°49'912.6
2017-Oct-07 11:49N 49°49' W 005°02'412.0
2017-Oct-07 11:30N 49°49' W 005°07'  

Dump ship's entire track history